X  Zatvori METAR podaci zračne luke     LDPL Pula Airport
Temperatura
19°C Temperatura
13°C Točka rosišta
68% Vlaga



Vjetar
0 M/S
1 MPS
2 KM/S
1 Čvorovi



Tišina
S
Trenutna situacija

Vedro Vedro
Tlak zraka 1018.92 (hPa) - 30.09 (inHg)
Vidljivost 6.2 (milje) - 10 (km)
Zračna luka
Kôd zračne luke LDPL

Lokacija: Pula Airport
Udaljenost: 39 (km)

Metar:
LDPL 270030Z VRB01KT CAVOK 19/13 Q1019

Vrijeme: 27-05-2022 02:30 CEST